createdAt,value
2018-10-06T00:00:25.726Z,17.10
2018-10-06T00:02:53.170Z,17.10
2018-10-06T00:05:20.576Z,17.10
2018-10-06T00:07:48.019Z,17.00
2018-10-06T00:10:15.452Z,17.00
2018-10-06T00:12:42.902Z,17.00
2018-10-06T00:15:10.335Z,17.00
2018-10-06T00:17:38.941Z,17.00
2018-10-06T00:20:07.281Z,17.00
2018-10-06T00:22:34.709Z,16.90
2018-10-06T00:25:02.103Z,16.90
2018-10-06T00:27:29.453Z,16.90
2018-10-06T00:29:57.007Z,16.90
2018-10-06T00:32:24.655Z,16.90
2018-10-06T00:34:52.072Z,16.90
2018-10-06T00:37:19.510Z,16.90
2018-10-06T00:39:46.892Z,16.90
2018-10-06T00:42:14.300Z,16.80
2018-10-06T00:44:41.614Z,16.90
2018-10-06T00:47:09.022Z,16.80
2018-10-06T00:49:36.576Z,16.80
2018-10-06T00:52:04.093Z,16.80
2018-10-06T00:54:32.158Z,17.10
2018-10-06T00:56:59.482Z,16.80
2018-10-06T00:59:26.846Z,16.70
2018-10-06T01:01:54.153Z,16.80
2018-10-06T01:04:21.505Z,16.70
2018-10-06T01:06:48.842Z,16.70
2018-10-06T01:09:16.226Z,16.70
2018-10-06T01:11:43.545Z,16.70
2018-10-06T01:14:10.902Z,16.70
2018-10-06T01:16:38.251Z,16.60
2018-10-06T01:19:05.679Z,16.60
2018-10-06T01:21:33.083Z,16.60
2018-10-06T01:24:00.544Z,16.60
2018-10-06T01:26:27.877Z,16.60
2018-10-06T01:28:55.258Z,16.50
2018-10-06T01:31:22.668Z,16.50
2018-10-06T01:33:50.034Z,16.50
2018-10-06T01:36:17.443Z,16.50
2018-10-06T01:38:45.169Z,16.50
2018-10-06T01:41:12.602Z,16.50
2018-10-06T01:43:39.958Z,16.50
2018-10-06T01:46:07.550Z,16.50
2018-10-06T01:48:35.002Z,16.50
2018-10-06T01:51:02.449Z,16.40
2018-10-06T01:53:30.202Z,16.40
2018-10-06T01:55:57.758Z,16.40
2018-10-06T01:58:25.161Z,16.40
2018-10-06T02:00:52.561Z,16.30
2018-10-06T02:03:20.262Z,16.30
2018-10-06T02:05:47.641Z,16.40
2018-10-06T02:08:15.042Z,16.30
2018-10-06T02:10:42.440Z,16.40
2018-10-06T02:13:09.854Z,16.30
2018-10-06T02:15:37.257Z,16.30
2018-10-06T02:18:04.828Z,16.30
2018-10-06T02:20:32.337Z,16.30
2018-10-06T02:22:59.706Z,16.30
2018-10-06T02:25:27.357Z,16.30
2018-10-06T02:27:54.710Z,16.30
2018-10-06T02:30:22.123Z,16.30
2018-10-06T02:32:49.483Z,16.20
2018-10-06T02:35:16.855Z,16.20
2018-10-06T02:37:44.315Z,16.30
2018-10-06T02:40:11.771Z,16.20
2018-10-06T02:42:39.246Z,16.20
2018-10-06T02:45:07.282Z,16.20
2018-10-06T02:47:34.652Z,16.20
2018-10-06T02:50:02.095Z,16.20
2018-10-06T02:52:29.430Z,16.20
2018-10-06T02:54:56.809Z,16.20
2018-10-06T02:57:24.276Z,16.20
2018-10-06T02:59:51.674Z,16.20
2018-10-06T03:02:19.039Z,16.20
2018-10-06T03:04:46.379Z,16.20
2018-10-06T03:07:13.733Z,16.10
2018-10-06T03:09:41.120Z,16.10
2018-10-06T03:12:08.571Z,16.10
2018-10-06T03:14:35.929Z,16.10
2018-10-06T03:17:03.399Z,16.10
2018-10-06T03:19:30.873Z,16.10
2018-10-06T03:21:58.267Z,16.10
2018-10-06T03:24:25.594Z,16.10
2018-10-06T03:26:52.939Z,16.10
2018-10-06T03:29:20.275Z,16.30
2018-10-06T03:31:47.842Z,16.10
2018-10-06T03:34:15.185Z,16.10
2018-10-06T03:36:42.603Z,16.00
2018-10-06T03:39:09.960Z,16.10
2018-10-06T03:41:37.346Z,16.10
2018-10-06T03:44:04.732Z,16.00
2018-10-06T03:46:32.158Z,16.10
2018-10-06T03:48:59.579Z,16.10
2018-10-06T03:51:27.078Z,16.00
2018-10-06T03:53:54.500Z,16.00
2018-10-06T03:56:21.804Z,16.00
2018-10-06T03:58:49.492Z,16.00
2018-10-06T04:01:16.889Z,16.00
2018-10-06T04:03:44.321Z,16.00
2018-10-06T04:06:11.725Z,16.00
2018-10-06T04:08:39.401Z,16.00
2018-10-06T04:11:06.885Z,16.00
2018-10-06T04:13:34.278Z,15.90
2018-10-06T04:16:01.640Z,15.90
2018-10-06T04:18:29.048Z,16.00
2018-10-06T04:20:56.386Z,16.20
2018-10-06T04:23:23.769Z,16.10
2018-10-06T04:25:51.361Z,15.90
2018-10-06T04:28:18.895Z,15.90
2018-10-06T04:30:46.275Z,16.00
2018-10-06T04:33:13.670Z,15.90
2018-10-06T04:35:41.069Z,15.90
2018-10-06T04:38:08.454Z,16.00
2018-10-06T04:40:36.479Z,16.00
2018-10-06T04:43:03.799Z,16.00
2018-10-06T04:45:31.146Z,16.00
2018-10-06T04:47:58.494Z,16.00
2018-10-06T04:50:25.890Z,15.90
2018-10-06T04:52:53.299Z,16.00
2018-10-06T04:55:20.667Z,16.00
2018-10-06T04:57:48.092Z,16.00
2018-10-06T05:00:15.562Z,15.90
2018-10-06T05:02:42.945Z,15.90
2018-10-06T05:05:10.290Z,15.90
2018-10-06T05:07:38.018Z,16.00
2018-10-06T05:10:05.586Z,16.00
2018-10-06T05:12:33.084Z,15.90
2018-10-06T05:15:00.467Z,16.00
2018-10-06T05:17:27.849Z,15.90
2018-10-06T05:19:55.231Z,15.90
2018-10-06T05:22:22.592Z,15.90
2018-10-06T05:24:49.986Z,15.90
2018-10-06T05:27:17.488Z,15.90
2018-10-06T05:29:44.818Z,15.90
2018-10-06T05:32:12.188Z,15.90
2018-10-06T05:34:39.591Z,15.60
2018-10-06T05:37:06.955Z,15.90
2018-10-06T05:39:34.323Z,15.90
2018-10-06T05:42:01.696Z,15.80
2018-10-06T05:44:29.047Z,15.80
2018-10-06T05:46:56.664Z,15.90
2018-10-06T05:49:24.099Z,15.80
2018-10-06T05:51:51.514Z,15.80
2018-10-06T05:54:18.871Z,15.80
2018-10-06T05:56:46.305Z,15.80
2018-10-06T05:59:13.707Z,15.80
2018-10-06T06:01:41.018Z,15.80
2018-10-06T06:04:08.439Z,15.80
2018-10-06T06:06:36.627Z,15.80
2018-10-06T06:09:05.363Z,15.80
2018-10-06T06:11:32.707Z,15.80
2018-10-06T06:14:00.000Z,15.80
2018-10-06T06:16:27.451Z,15.80
2018-10-06T06:18:54.838Z,15.40
2018-10-06T06:21:22.178Z,15.80
2018-10-06T06:23:49.621Z,15.80
2018-10-06T06:26:16.993Z,15.80
2018-10-06T06:28:44.467Z,15.80
2018-10-06T06:31:11.890Z,15.80
2018-10-06T06:33:39.259Z,15.80
2018-10-06T06:36:06.827Z,15.80
2018-10-06T06:38:34.225Z,15.80
2018-10-06T06:41:01.631Z,15.80
2018-10-06T06:43:29.029Z,15.80
2018-10-06T06:45:56.406Z,15.80
2018-10-06T06:48:23.767Z,15.80
2018-10-06T06:50:51.233Z,15.80
2018-10-06T06:53:18.543Z,15.80
2018-10-06T06:55:45.854Z,15.80
2018-10-06T06:58:13.208Z,15.90
2018-10-06T07:00:40.550Z,15.90
2018-10-06T07:03:07.952Z,15.90
2018-10-06T07:05:35.337Z,15.90
2018-10-06T07:08:02.855Z,15.90
2018-10-06T07:10:30.307Z,15.90
2018-10-06T07:12:57.752Z,15.90
2018-10-06T07:15:25.147Z,15.90
2018-10-06T07:17:52.559Z,16.00
2018-10-06T07:20:19.975Z,15.90
2018-10-06T07:22:47.362Z,16.00
2018-10-06T07:25:14.834Z,16.00
2018-10-06T07:27:42.251Z,16.00
2018-10-06T07:30:09.599Z,16.10
2018-10-06T07:32:36.950Z,16.00
2018-10-06T07:35:04.399Z,16.10
2018-10-06T07:37:31.723Z,16.10
2018-10-06T07:39:59.218Z,16.10
2018-10-06T07:42:26.567Z,16.10
2018-10-06T07:44:53.958Z,16.10
2018-10-06T07:47:21.330Z,16.10
2018-10-06T07:49:48.646Z,16.20
2018-10-06T07:52:16.094Z,16.20
2018-10-06T07:54:43.469Z,16.20
2018-10-06T07:57:10.889Z,16.20
2018-10-06T07:59:38.267Z,16.30
2018-10-06T08:02:05.645Z,16.30
2018-10-06T08:04:34.066Z,16.30
2018-10-06T08:07:01.430Z,16.30
2018-10-06T08:09:28.706Z,16.40
2018-10-06T08:11:56.098Z,16.30
2018-10-06T08:14:23.940Z,16.30
2018-10-06T08:16:51.356Z,16.40
2018-10-06T08:19:18.760Z,16.40
2018-10-06T08:21:46.142Z,16.40
2018-10-06T08:24:13.458Z,16.40
2018-10-06T08:26:41.276Z,16.50
2018-10-06T08:29:08.686Z,16.50
2018-10-06T08:31:36.111Z,16.50
2018-10-06T08:34:03.513Z,16.50
2018-10-06T08:36:31.278Z,16.50
2018-10-06T08:38:58.688Z,16.60
2018-10-06T08:41:26.107Z,16.60
2018-10-06T08:43:53.449Z,16.60
2018-10-06T08:46:20.862Z,16.60
2018-10-06T08:48:48.204Z,16.60
2018-10-06T08:51:15.585Z,16.60
2018-10-06T08:53:42.953Z,16.70
2018-10-06T08:56:10.512Z,16.70
2018-10-06T08:58:37.799Z,16.70
2018-10-06T09:01:05.535Z,16.70
2018-10-06T09:03:33.007Z,16.70
2018-10-06T09:06:00.403Z,16.80
2018-10-06T09:08:27.773Z,16.80
2018-10-06T09:10:55.229Z,16.80
2018-10-06T09:13:22.663Z,16.80
2018-10-06T09:15:50.023Z,16.80
2018-10-06T09:18:17.363Z,16.90
2018-10-06T09:20:44.705Z,16.90
2018-10-06T09:23:12.146Z,16.90
2018-10-06T09:25:39.598Z,16.90
2018-10-06T09:28:07.349Z,16.90
2018-10-06T09:30:34.683Z,16.90
2018-10-06T09:33:02.205Z,17.00
2018-10-06T09:35:29.842Z,17.00
2018-10-06T09:37:57.250Z,17.00
2018-10-06T09:40:24.709Z,17.00
2018-10-06T09:42:52.114Z,17.00
2018-10-06T09:45:19.421Z,17.20
2018-10-06T09:47:46.784Z,17.10
2018-10-06T09:50:14.121Z,17.10
2018-10-06T09:52:41.455Z,17.10
2018-10-06T09:55:08.884Z,17.20
2018-10-06T09:57:36.234Z,17.20
2018-10-06T10:00:04.164Z,17.20
2018-10-06T10:02:37.394Z,17.20
2018-10-06T10:05:10.669Z,17.20
2018-10-06T10:07:38.047Z,17.30
2018-10-06T10:10:06.511Z,17.30
2018-10-06T10:12:34.274Z,17.30
2018-10-06T10:15:01.594Z,17.30
2018-10-06T10:17:29.022Z,17.30
2018-10-06T10:19:56.422Z,17.40
2018-10-06T10:22:24.130Z,17.40
2018-10-06T10:24:51.211Z,17.40
2018-10-06T10:27:18.791Z,17.50
2018-10-06T10:29:46.182Z,17.40
2018-10-06T10:32:14.550Z,17.50
2018-10-06T10:34:42.049Z,17.50
2018-10-06T10:37:09.530Z,17.60
2018-10-06T10:39:37.012Z,17.60
2018-10-06T10:42:04.682Z,17.60
2018-10-06T10:44:32.086Z,17.60
2018-10-06T10:46:59.474Z,17.60
2018-10-06T10:49:27.025Z,17.70
2018-10-06T10:51:54.587Z,17.70
2018-10-06T10:54:21.941Z,17.90
2018-10-06T10:56:49.500Z,17.70
2018-10-06T10:59:16.912Z,17.80
2018-10-06T11:01:44.324Z,17.80
2018-10-06T11:04:11.731Z,17.80
2018-10-06T11:06:39.243Z,17.90
2018-10-06T11:09:07.215Z,17.90
2018-10-06T11:11:35.031Z,17.90
2018-10-06T11:14:02.688Z,18.00
2018-10-06T11:16:30.177Z,18.00
2018-10-06T11:18:57.830Z,18.00
2018-10-06T11:21:25.879Z,18.10
2018-10-06T11:23:53.395Z,18.10
2018-10-06T11:26:20.798Z,18.20
2018-10-06T11:28:48.267Z,18.20
2018-10-06T11:31:16.155Z,18.20
2018-10-06T11:33:43.650Z,18.30
2018-10-06T11:36:11.321Z,18.30
2018-10-06T11:38:38.745Z,18.40
2018-10-06T11:41:06.335Z,18.40
2018-10-06T11:43:33.744Z,18.40
2018-10-06T11:46:01.118Z,18.50
2018-10-06T11:48:28.659Z,18.50
2018-10-06T11:50:56.069Z,18.60
2018-10-06T11:53:23.673Z,18.60
2018-10-06T11:55:51.135Z,18.60
2018-10-06T11:58:18.534Z,18.70
2018-10-06T12:00:45.944Z,18.70
2018-10-06T12:03:13.275Z,18.80
2018-10-06T12:05:40.738Z,18.80
2018-10-06T12:08:08.115Z,18.90
2018-10-06T12:10:35.498Z,18.90
2018-10-06T12:13:03.531Z,18.90
2018-10-06T12:15:31.064Z,19.00
2018-10-06T12:17:58.653Z,19.10
2018-10-06T12:20:26.028Z,19.10
2018-10-06T12:22:53.336Z,19.10
2018-10-06T12:25:20.683Z,19.20
2018-10-06T12:27:48.081Z,19.20
2018-10-06T12:30:15.458Z,19.20
2018-10-06T12:32:42.894Z,19.30
2018-10-06T12:35:10.301Z,19.30
2018-10-06T12:37:37.698Z,19.40
2018-10-06T12:40:05.302Z,19.40
2018-10-06T12:42:33.134Z,19.40
2018-10-06T12:45:00.491Z,19.50
2018-10-06T12:47:27.855Z,19.50
2018-10-06T12:49:55.271Z,19.50
2018-10-06T12:52:22.615Z,19.50
2018-10-06T12:54:49.975Z,19.60
2018-10-06T12:57:18.181Z,19.60
2018-10-06T12:59:45.555Z,19.70
2018-10-06T13:02:12.930Z,19.70
2018-10-06T13:04:40.342Z,19.80
2018-10-06T13:07:07.698Z,19.80
2018-10-06T13:09:35.083Z,19.70
2018-10-06T13:12:02.473Z,19.90
2018-10-06T13:14:29.834Z,19.90
2018-10-06T13:16:57.257Z,19.90
2018-10-06T13:19:24.658Z,19.90
2018-10-06T13:21:52.111Z,20.00
2018-10-06T13:24:19.669Z,20.00
2018-10-06T13:26:47.137Z,20.00
2018-10-06T13:29:14.541Z,20.00
2018-10-06T13:31:42.012Z,20.00
2018-10-06T13:34:09.853Z,20.00
2018-10-06T13:36:37.498Z,20.00
2018-10-06T13:39:07.980Z,20.10
2018-10-06T13:41:36.484Z,20.10
2018-10-06T13:44:04.728Z,20.10
2018-10-06T13:46:32.993Z,20.20
2018-10-06T13:49:00.651Z,20.20
2018-10-06T13:51:29.244Z,20.20
2018-10-06T13:53:57.034Z,20.30
2018-10-06T13:56:24.617Z,20.30
2018-10-06T13:58:53.302Z,20.30
2018-10-06T14:01:21.870Z,20.30
2018-10-06T14:03:49.654Z,20.40
2018-10-06T14:06:17.523Z,20.50
2018-10-06T14:08:45.164Z,20.50
2018-10-06T14:11:12.775Z,20.50
2018-10-06T14:13:40.537Z,20.60
2018-10-06T14:16:08.224Z,20.60
2018-10-06T14:18:36.427Z,20.70
2018-10-06T14:21:04.845Z,20.70
2018-10-06T14:23:33.331Z,20.70
2018-10-06T14:26:01.059Z,20.90
2018-10-06T14:28:29.052Z,20.80
2018-10-06T14:30:57.075Z,20.90
2018-10-06T14:33:25.031Z,20.90
2018-10-06T14:35:53.022Z,21.00
2018-10-06T14:38:20.726Z,21.00
2018-10-06T14:40:48.465Z,21.10
2018-10-06T14:43:16.079Z,21.10
2018-10-06T14:45:44.141Z,21.10
2018-10-06T14:48:12.192Z,21.20
2018-10-06T14:50:40.239Z,21.20
2018-10-06T14:53:08.200Z,21.30
2018-10-06T14:55:36.695Z,21.30
2018-10-06T14:58:05.164Z,21.30
2018-10-06T15:00:33.199Z,21.30
2018-10-06T15:03:00.687Z,21.30
2018-10-06T15:05:28.364Z,21.30
2018-10-06T15:07:56.071Z,21.20
2018-10-06T15:10:24.736Z,21.20
2018-10-06T15:12:52.210Z,21.20
2018-10-06T15:15:20.145Z,21.20
2018-10-06T15:17:48.117Z,21.20
2018-10-06T15:20:16.409Z,21.20
2018-10-06T15:22:44.612Z,21.30
2018-10-06T15:25:12.823Z,21.30
2018-10-06T15:27:40.477Z,21.30
2018-10-06T15:30:08.414Z,21.40
2018-10-06T15:32:36.567Z,21.30
2018-10-06T15:35:04.248Z,21.30
2018-10-06T15:37:32.252Z,21.30
2018-10-06T15:40:00.194Z,21.40
2018-10-06T15:42:28.065Z,21.40
2018-10-06T15:44:56.145Z,21.20
2018-10-06T15:47:24.056Z,21.40
2018-10-06T15:49:52.090Z,21.40
2018-10-06T15:52:20.228Z,21.40
2018-10-06T15:54:48.013Z,21.40
2018-10-06T15:57:15.952Z,21.50
2018-10-06T15:59:43.770Z,21.50
2018-10-06T16:02:11.411Z,21.50
2018-10-06T16:04:38.967Z,21.50
2018-10-06T16:07:06.858Z,21.60
2018-10-06T16:09:34.442Z,21.60
2018-10-06T16:12:02.957Z,21.60
2018-10-06T16:14:31.320Z,21.60
2018-10-06T16:16:58.981Z,21.60
2018-10-06T16:19:26.779Z,21.60
2018-10-06T16:21:54.356Z,21.60
2018-10-06T16:24:22.264Z,21.60
2018-10-06T16:26:50.233Z,21.60
2018-10-06T16:29:18.237Z,21.60
2018-10-06T16:31:46.291Z,21.60
2018-10-06T16:34:14.453Z,21.50
2018-10-06T16:36:42.433Z,21.50
2018-10-06T16:39:10.573Z,21.50
2018-10-06T16:41:38.534Z,21.40
2018-10-06T16:44:06.641Z,21.40
2018-10-06T16:46:34.442Z,21.40
2018-10-06T16:49:04.342Z,21.30
2018-10-06T16:51:32.559Z,21.30
2018-10-06T16:54:00.661Z,21.20
2018-10-06T16:56:29.940Z,21.20
2018-10-06T16:58:58.438Z,21.20
2018-10-06T17:01:26.414Z,21.10
2018-10-06T17:03:55.641Z,21.10
2018-10-06T17:06:23.547Z,21.10
2018-10-06T17:08:51.307Z,21.00
2018-10-06T17:11:18.957Z,21.00
2018-10-06T17:13:47.946Z,21.00
2018-10-06T17:16:16.053Z,20.90
2018-10-06T17:18:44.289Z,20.90
2018-10-06T17:21:12.534Z,20.90
2018-10-06T17:23:41.296Z,20.90
2018-10-06T17:26:09.340Z,20.80
2018-10-06T17:28:36.865Z,20.80
2018-10-06T17:31:05.277Z,20.80
2018-10-06T17:33:32.713Z,20.80
2018-10-06T17:36:00.266Z,20.70
2018-10-06T17:38:27.720Z,21.00
2018-10-06T17:40:55.281Z,20.70
2018-10-06T17:43:22.659Z,20.70
2018-10-06T17:45:50.050Z,20.70
2018-10-06T17:48:17.559Z,20.60
2018-10-06T17:50:45.118Z,20.60
2018-10-06T17:53:12.472Z,20.60
2018-10-06T17:55:40.041Z,20.60
2018-10-06T17:58:07.550Z,20.60
2018-10-06T18:00:35.275Z,20.50
2018-10-06T18:03:02.698Z,20.50
2018-10-06T18:05:30.335Z,20.50
2018-10-06T18:07:57.863Z,20.50
2018-10-06T18:10:25.261Z,20.40
2018-10-06T18:12:52.869Z,20.40
2018-10-06T18:15:20.278Z,20.40
2018-10-06T18:17:47.758Z,20.40
2018-10-06T18:20:15.290Z,20.40
2018-10-06T18:22:42.820Z,20.30
2018-10-06T18:25:10.217Z,20.30
2018-10-06T18:27:37.673Z,20.40
2018-10-06T18:30:05.360Z,20.30
2018-10-06T18:32:33.367Z,20.30
2018-10-06T18:35:00.778Z,20.30
2018-10-06T18:37:28.144Z,20.30
2018-10-06T18:39:55.658Z,20.20
2018-10-06T18:42:23.016Z,20.30
2018-10-06T18:44:50.443Z,20.50
2018-10-06T18:47:18.038Z,20.30
2018-10-06T18:49:45.361Z,20.30
2018-10-06T18:52:12.920Z,20.20
2018-10-06T18:54:40.453Z,20.20
2018-10-06T18:57:08.327Z,20.10
2018-10-06T18:59:36.255Z,20.10
2018-10-06T19:02:03.728Z,20.10
2018-10-06T19:04:31.395Z,20.10
2018-10-06T19:06:58.866Z,20.10
2018-10-06T19:09:26.223Z,20.10
2018-10-06T19:11:53.601Z,20.10
2018-10-06T19:14:21.055Z,20.00
2018-10-06T19:16:48.734Z,20.00
2018-10-06T19:19:16.082Z,20.00
2018-10-06T19:21:43.672Z,20.00
2018-10-06T19:24:11.079Z,19.90
2018-10-06T19:26:38.634Z,20.00
2018-10-06T19:29:06.338Z,19.90
2018-10-06T19:31:33.695Z,19.70
2018-10-06T19:34:01.358Z,19.90
2018-10-06T19:36:28.681Z,19.80
2018-10-06T19:38:56.171Z,19.90
2018-10-06T19:41:23.927Z,19.80
2018-10-06T19:43:51.272Z,19.70
2018-10-06T19:46:18.981Z,19.80
2018-10-06T19:48:46.338Z,19.80
2018-10-06T19:51:13.713Z,19.70
2018-10-06T19:53:41.589Z,19.80
2018-10-06T19:56:09.049Z,19.70
2018-10-06T19:58:36.854Z,19.70
2018-10-06T20:01:04.227Z,19.70
2018-10-06T20:03:32.001Z,19.70
2018-10-06T20:06:00.391Z,19.70
2018-10-06T20:08:27.990Z,19.60
2018-10-06T20:10:55.317Z,19.70
2018-10-06T20:13:23.027Z,19.60
2018-10-06T20:15:50.407Z,19.60
2018-10-06T20:18:17.745Z,19.70
2018-10-06T20:20:45.513Z,19.60
2018-10-06T20:23:12.939Z,19.60
2018-10-06T20:25:40.703Z,19.60
2018-10-06T20:28:08.123Z,19.60
2018-10-06T20:30:35.519Z,19.60
2018-10-06T20:33:03.374Z,19.60
2018-10-06T20:35:30.791Z,19.60
2018-10-06T20:37:58.327Z,19.50
2018-10-06T20:40:25.705Z,19.50
2018-10-06T20:42:53.081Z,19.50
2018-10-06T20:45:20.491Z,19.50
2018-10-06T20:47:48.551Z,19.50
2018-10-06T20:50:16.109Z,19.50
2018-10-06T20:52:43.603Z,19.50
2018-10-06T20:55:11.144Z,19.10
2018-10-06T20:57:38.570Z,19.50
2018-10-06T21:00:07.114Z,19.40
2018-10-06T21:02:34.488Z,19.40
2018-10-06T21:05:02.386Z,19.40
2018-10-06T21:07:29.760Z,19.10
2018-10-06T21:09:57.290Z,19.40
2018-10-06T21:12:25.706Z,19.40
2018-10-06T21:14:53.118Z,19.40
2018-10-06T21:17:20.526Z,19.50
2018-10-06T21:19:47.866Z,19.30
2018-10-06T21:22:15.425Z,19.30
2018-10-06T21:24:42.853Z,19.30
2018-10-06T21:27:10.381Z,19.20
2018-10-06T21:29:38.117Z,19.20
2018-10-06T21:32:05.815Z,19.10
2018-10-06T21:34:33.173Z,19.10
2018-10-06T21:37:00.592Z,19.10
2018-10-06T21:39:28.232Z,19.10
2018-10-06T21:41:55.678Z,19.00
2018-10-06T21:44:23.321Z,19.10
2018-10-06T21:46:50.727Z,19.00
2018-10-06T21:49:18.336Z,19.00
2018-10-06T21:51:45.662Z,19.00
2018-10-06T21:54:13.052Z,19.00
2018-10-06T21:56:40.451Z,19.00
2018-10-06T21:59:07.854Z,18.90
2018-10-06T22:01:35.240Z,18.90
2018-10-06T22:04:02.791Z,18.90
2018-10-06T22:06:30.235Z,18.90
2018-10-06T22:08:57.630Z,18.90
2018-10-06T22:11:24.985Z,18.90
2018-10-06T22:13:52.533Z,18.90
2018-10-06T22:16:19.958Z,18.90
2018-10-06T22:18:47.387Z,18.90
2018-10-06T22:21:14.736Z,18.90
2018-10-06T22:23:42.111Z,18.90
2018-10-06T22:26:09.604Z,18.90
2018-10-06T22:28:37.884Z,18.90
2018-10-06T22:31:05.285Z,18.90
2018-10-06T22:33:32.594Z,18.90
2018-10-06T22:36:00.165Z,18.90
2018-10-06T22:38:27.570Z,19.00
2018-10-06T22:40:55.003Z,18.90
2018-10-06T22:43:22.357Z,19.00
2018-10-06T22:45:49.782Z,19.00
2018-10-06T22:48:17.165Z,19.00
2018-10-06T22:50:44.551Z,19.00
2018-10-06T22:53:12.529Z,19.00
2018-10-06T22:55:40.090Z,19.00
2018-10-06T22:58:07.507Z,19.00
2018-10-06T23:00:35.083Z,19.00
2018-10-06T23:03:02.523Z,19.00
2018-10-06T23:05:29.909Z,19.00
2018-10-06T23:07:57.224Z,19.00
2018-10-06T23:10:24.593Z,19.00
2018-10-06T23:12:52.003Z,19.00
2018-10-06T23:15:19.486Z,18.90
2018-10-06T23:17:47.023Z,18.90
2018-10-06T23:20:20.480Z,18.90
2018-10-06T23:22:54.066Z,18.90
2018-10-06T23:25:21.406Z,18.90
2018-10-06T23:27:48.770Z,18.90
2018-10-06T23:30:16.122Z,18.90
2018-10-06T23:32:43.539Z,18.90
2018-10-06T23:35:10.959Z,18.90
2018-10-06T23:37:38.339Z,18.80
2018-10-06T23:40:05.880Z,18.80
2018-10-06T23:42:33.247Z,18.80
2018-10-06T23:45:00.675Z,18.80
2018-10-06T23:47:28.018Z,18.80
2018-10-06T23:49:55.527Z,18.70
2018-10-06T23:52:23.382Z,18.60
2018-10-06T23:54:50.786Z,18.60
2018-10-06T23:57:18.174Z,18.60
2018-10-06T23:59:45.623Z,18.60
